createdAt,value
2017-05-05T00:00:36.831Z,85.14
2017-05-05T00:01:17.344Z,84.85
2017-05-05T00:01:57.869Z,84.38
2017-05-05T00:02:38.389Z,84.56
2017-05-05T00:03:18.913Z,84.56
2017-05-05T00:03:59.448Z,84.66
2017-05-05T00:04:39.987Z,84.66
2017-05-05T00:05:20.501Z,84.38
2017-05-05T00:06:01.022Z,84.19
2017-05-05T00:06:41.538Z,84.47
2017-05-05T00:07:22.058Z,84.38
2017-05-05T00:08:02.569Z,84.56
2017-05-05T00:08:43.085Z,84.38
2017-05-05T00:09:23.604Z,84.66
2017-05-05T00:10:04.137Z,84.09
2017-05-05T00:10:44.679Z,84.66
2017-05-05T00:11:25.199Z,85.14
2017-05-05T00:12:05.715Z,84.76
2017-05-05T00:12:46.232Z,85.05
2017-05-05T00:13:26.765Z,84.56
2017-05-05T00:14:07.289Z,84.56
2017-05-05T00:14:47.802Z,85.14
2017-05-05T00:15:28.323Z,84.47
2017-05-05T00:16:08.848Z,84.38
2017-05-05T00:16:49.359Z,85.09
2017-05-05T00:17:29.877Z,85.14
2017-05-05T00:18:10.401Z,84.47
2017-05-05T00:18:50.923Z,85.33
2017-05-05T00:19:31.457Z,84.99
2017-05-05T00:20:11.991Z,84.19
2017-05-05T00:20:52.511Z,84.32
2017-05-05T00:21:33.037Z,84.61
2017-05-05T00:22:13.559Z,84.7
2017-05-05T00:22:54.094Z,84.32
2017-05-05T00:23:34.622Z,84.32
2017-05-05T00:24:15.161Z,84.52
2017-05-05T00:24:55.671Z,84.61
2017-05-05T00:25:36.182Z,84.03
2017-05-05T00:26:16.708Z,84.23
2017-05-05T00:26:57.229Z,84.42
2017-05-05T00:27:37.754Z,84.23
2017-05-05T00:28:18.311Z,84.32
2017-05-05T00:28:58.830Z,84.23
2017-05-05T00:29:39.419Z,84.23
2017-05-05T00:30:19.952Z,84.23
2017-05-05T00:31:00.468Z,84.52
2017-05-05T00:31:40.987Z,84.42
2017-05-05T00:32:21.502Z,84.23
2017-05-05T00:33:02.019Z,84.61
2017-05-05T00:33:42.544Z,84.85
2017-05-05T00:34:23.056Z,84.56
2017-05-05T00:35:03.580Z,85.24
2017-05-05T00:35:44.124Z,84.66
2017-05-05T00:36:24.645Z,85.14
2017-05-05T00:37:05.168Z,85.38
2017-05-05T00:37:45.687Z,85.47
2017-05-05T00:38:26.211Z,85.66
2017-05-05T00:39:06.721Z,85.38
2017-05-05T00:39:47.235Z,85.85
2017-05-05T00:40:27.762Z,85.18
2017-05-05T00:41:08.285Z,84.8
2017-05-05T00:41:48.797Z,85.28
2017-05-05T00:42:29.330Z,84.61
2017-05-05T00:43:09.860Z,84.47
2017-05-05T00:43:50.387Z,85.33
2017-05-05T00:44:30.906Z,84.47
2017-05-05T00:45:11.395Z,83.99
2017-05-05T00:45:51.922Z,84.38
2017-05-05T00:46:32.444Z,84.95
2017-05-05T00:47:12.969Z,85.24
2017-05-05T00:47:53.534Z,85.71
2017-05-05T00:48:34.005Z,85.24
2017-05-05T00:49:14.517Z,85.14
2017-05-05T00:49:55.036Z,85.52
2017-05-05T00:50:35.563Z,85.71
2017-05-05T00:51:16.072Z,86
2017-05-05T00:51:56.596Z,86.38
2017-05-05T00:52:37.117Z,86.82
2017-05-05T00:53:17.652Z,86.53
2017-05-05T00:53:58.167Z,86.57
2017-05-05T00:54:38.687Z,86.76
2017-05-05T00:55:19.190Z,86.67
2017-05-05T00:55:59.730Z,86.57
2017-05-05T00:56:40.257Z,86.38
2017-05-05T00:57:20.773Z,86.29
2017-05-05T00:58:01.286Z,85.9
2017-05-05T00:58:41.817Z,85.52
2017-05-05T00:59:22.338Z,86.19
2017-05-05T01:00:02.856Z,86.19
2017-05-05T01:00:43.375Z,85.71
2017-05-05T01:01:23.892Z,85.81
2017-05-05T01:02:04.428Z,85.62
2017-05-05T01:02:44.945Z,86
2017-05-05T01:03:25.470Z,86.1
2017-05-05T01:04:05.998Z,85.62
2017-05-05T01:04:46.518Z,86.19
2017-05-05T01:05:27.037Z,86
2017-05-05T01:06:07.558Z,86
2017-05-05T01:06:48.096Z,86.47
2017-05-05T01:07:28.629Z,86.86
2017-05-05T01:08:09.154Z,86.47
2017-05-05T01:08:49.676Z,85.9
2017-05-05T01:09:30.192Z,86
2017-05-05T01:10:10.714Z,86
2017-05-05T01:10:51.232Z,86
2017-05-05T01:11:31.753Z,85.62
2017-05-05T01:12:12.271Z,85.52
2017-05-05T01:12:52.796Z,85.62
2017-05-05T01:13:33.311Z,85.9
2017-05-05T01:14:13.835Z,86.38
2017-05-05T01:14:54.365Z,86.19
2017-05-05T01:15:34.900Z,85.62
2017-05-05T01:16:15.416Z,85.81
2017-05-05T01:16:55.937Z,85.62
2017-05-05T01:17:36.451Z,86.1
2017-05-05T01:18:16.964Z,85.52
2017-05-05T01:18:57.487Z,85.71
2017-05-05T01:19:38.019Z,86
2017-05-05T01:20:18.536Z,85.71
2017-05-05T01:20:59.055Z,85.81
2017-05-05T01:21:39.588Z,85.66
2017-05-05T01:22:20.122Z,85.28
2017-05-05T01:23:00.634Z,85.66
2017-05-05T01:23:41.167Z,85.18
2017-05-05T01:24:21.685Z,84.85
2017-05-05T01:25:02.211Z,85.38
2017-05-05T01:25:42.739Z,85.75
2017-05-05T01:26:23.258Z,85.28
2017-05-05T01:27:03.773Z,84.99
2017-05-05T01:27:44.299Z,84.52
2017-05-05T01:28:24.817Z,84.7
2017-05-05T01:29:05.343Z,84.47
2017-05-05T01:29:45.863Z,85.14
2017-05-05T01:30:26.385Z,85.05
2017-05-05T01:31:06.904Z,85.24
2017-05-05T01:31:47.411Z,85.33
2017-05-05T01:32:27.942Z,85.52
2017-05-05T01:33:08.470Z,85.05
2017-05-05T01:33:48.996Z,85.18
2017-05-05T01:34:29.516Z,84.76
2017-05-05T01:35:10.033Z,85.18
2017-05-05T01:35:50.557Z,85.18
2017-05-05T01:36:31.071Z,85.14
2017-05-05T01:37:11.599Z,85.18
2017-05-05T01:37:52.115Z,85.09
2017-05-05T01:38:32.629Z,85.47
2017-05-05T01:39:13.150Z,84.99
2017-05-05T01:39:53.681Z,85.09
2017-05-05T01:40:34.214Z,85.66
2017-05-05T01:41:14.727Z,85.09
2017-05-05T01:41:55.261Z,85.28
2017-05-05T01:42:35.786Z,85.18
2017-05-05T01:43:16.308Z,85.18
2017-05-05T01:43:56.830Z,85.38
2017-05-05T01:44:37.343Z,85.28
2017-05-05T01:45:17.866Z,84.61
2017-05-05T01:45:58.424Z,84.8
2017-05-05T01:46:38.947Z,84.61
2017-05-05T01:47:19.477Z,84.8
2017-05-05T01:47:59.980Z,84.99
2017-05-05T01:48:40.496Z,85.47
2017-05-05T01:49:21.023Z,85.18
2017-05-05T01:50:01.549Z,85.57
2017-05-05T01:50:42.067Z,84.99
2017-05-05T01:51:22.603Z,84.89
2017-05-05T01:52:03.093Z,85.75
2017-05-05T01:52:43.649Z,84.99
2017-05-05T01:53:24.170Z,85.85
2017-05-05T01:54:04.688Z,85.57
2017-05-05T01:54:45.212Z,85.28
2017-05-05T01:55:25.747Z,84.61
2017-05-05T01:56:06.267Z,85.18
2017-05-05T01:56:46.789Z,84.61
2017-05-05T01:57:27.318Z,84.99
2017-05-05T01:58:07.834Z,84.42
2017-05-05T01:58:48.358Z,84.89
2017-05-05T01:59:28.881Z,84.99
2017-05-05T02:00:09.402Z,84.99
2017-05-05T02:00:49.920Z,85.28
2017-05-05T02:01:30.449Z,84.7
2017-05-05T02:02:10.966Z,85.28
2017-05-05T02:02:51.489Z,84.42
2017-05-05T02:03:31.983Z,84.32
2017-05-05T02:04:12.524Z,84.32
2017-05-05T02:04:53.086Z,84.32
2017-05-05T02:05:33.595Z,84.52
2017-05-05T02:06:14.112Z,84.7
2017-05-05T02:06:54.647Z,83.94
2017-05-05T02:07:35.152Z,83.84
2017-05-05T02:08:15.654Z,83.75
2017-05-05T02:08:56.179Z,83.37
2017-05-05T02:09:36.697Z,83.94
2017-05-05T02:10:17.215Z,83.84
2017-05-05T02:10:57.722Z,83.75
2017-05-05T02:11:38.245Z,83.84
2017-05-05T02:12:18.758Z,83.84
2017-05-05T02:12:59.298Z,83.84
2017-05-05T02:13:39.818Z,83.75
2017-05-05T02:14:20.350Z,83.94
2017-05-05T02:15:00.892Z,83.94
2017-05-05T02:15:41.409Z,83.94
2017-05-05T02:16:21.934Z,84.7
2017-05-05T02:17:02.488Z,84.42
2017-05-05T02:17:42.959Z,84.03
2017-05-05T02:18:23.483Z,83.56
2017-05-05T02:19:04.002Z,83.56
2017-05-05T02:19:44.520Z,83.84
2017-05-05T02:20:25.061Z,83.94
2017-05-05T02:21:05.585Z,83.46
2017-05-05T02:21:46.097Z,84.42
2017-05-05T02:22:26.615Z,83.84
2017-05-05T02:23:07.128Z,83.84
2017-05-05T02:23:47.641Z,83.65
2017-05-05T02:24:28.159Z,83.84
2017-05-05T02:25:08.680Z,84.03
2017-05-05T02:25:49.208Z,83.94
2017-05-05T02:26:29.734Z,83.37
2017-05-05T02:27:10.273Z,83.56
2017-05-05T02:27:50.819Z,83.75
2017-05-05T02:28:31.324Z,83.94
2017-05-05T02:29:11.838Z,83.27
2017-05-05T02:29:52.360Z,83.46
2017-05-05T02:30:32.875Z,83.65
2017-05-05T02:31:13.405Z,83.56
2017-05-05T02:31:53.932Z,83.27
2017-05-05T02:32:34.464Z,83.27
2017-05-05T02:33:14.990Z,83.65
2017-05-05T02:33:55.519Z,83.94
2017-05-05T02:34:36.047Z,83.17
2017-05-05T02:35:16.573Z,83.94
2017-05-05T02:35:57.116Z,83.84
2017-05-05T02:36:37.606Z,83.46
2017-05-05T02:37:18.120Z,83.84
2017-05-05T02:37:58.641Z,83.75
2017-05-05T02:38:39.184Z,83.56
2017-05-05T02:39:19.704Z,83.84
2017-05-05T02:40:00.234Z,83.65
2017-05-05T02:40:40.770Z,83.75
2017-05-05T02:41:21.319Z,83.94
2017-05-05T02:42:01.823Z,84.03
2017-05-05T02:42:42.343Z,83.84
2017-05-05T02:43:22.865Z,83.56
2017-05-05T02:44:03.388Z,83.27
2017-05-05T02:44:43.917Z,83.37
2017-05-05T02:45:24.433Z,83.56
2017-05-05T02:46:04.961Z,83.56
2017-05-05T02:46:45.477Z,83.17
2017-05-05T02:47:25.992Z,83.37
2017-05-05T02:48:06.648Z,83.27
2017-05-05T02:48:47.107Z,83.17
2017-05-05T02:49:27.634Z,83.27
2017-05-05T02:50:08.200Z,83.27
2017-05-05T02:50:48.758Z,83.37
2017-05-05T02:51:29.272Z,84.03
2017-05-05T02:52:09.784Z,83.46
2017-05-05T02:52:50.315Z,83.65
2017-05-05T02:53:30.829Z,84.03
2017-05-05T02:54:11.332Z,83.84
2017-05-05T02:54:51.852Z,83.94
2017-05-05T02:55:32.394Z,83.46
2017-05-05T02:56:12.925Z,83.56
2017-05-05T02:56:53.445Z,83.56
2017-05-05T02:57:33.930Z,83.27
2017-05-05T02:58:14.436Z,82.98
2017-05-05T02:58:54.953Z,82.98
2017-05-05T02:59:35.475Z,83.08
2017-05-05T03:00:15.991Z,83.08
2017-05-05T03:00:56.512Z,82.98
2017-05-05T03:01:37.049Z,83.17
2017-05-05T03:02:17.577Z,82.98
2017-05-05T03:02:58.104Z,82.98
2017-05-05T03:03:38.629Z,82.79
2017-05-05T03:04:19.172Z,83.27
2017-05-05T03:04:59.698Z,83.17
2017-05-05T03:05:40.228Z,83.37
2017-05-05T03:06:20.761Z,83.08
2017-05-05T03:07:01.278Z,83.08
2017-05-05T03:07:41.801Z,83.08
2017-05-05T03:08:22.321Z,83.27
2017-05-05T03:09:02.857Z,82.98
2017-05-05T03:09:43.391Z,83.27
2017-05-05T03:10:23.884Z,83.17
2017-05-05T03:11:04.418Z,82.12
2017-05-05T03:11:44.904Z,83.27
2017-05-05T03:12:25.412Z,82.41
2017-05-05T03:13:05.886Z,82.28
2017-05-05T03:13:46.394Z,82.75
2017-05-05T03:14:26.886Z,82.65
2017-05-05T03:15:07.403Z,82.79
2017-05-05T03:15:47.911Z,83.08
2017-05-05T03:16:28.460Z,82.41
2017-05-05T03:17:08.968Z,82.31
2017-05-05T03:17:49.495Z,82.22
2017-05-05T03:18:30.010Z,82.41
2017-05-05T03:19:10.530Z,83.27
2017-05-05T03:19:51.051Z,82.22
2017-05-05T03:20:31.568Z,82.31
2017-05-05T03:21:12.109Z,82.31
2017-05-05T03:21:52.623Z,82.03
2017-05-05T03:22:33.166Z,82.12
2017-05-05T03:23:13.687Z,82.31
2017-05-05T03:23:54.211Z,82.31
2017-05-05T03:24:34.736Z,82.03
2017-05-05T03:25:15.266Z,82.46
2017-05-05T03:25:55.794Z,83.33
2017-05-05T03:26:36.331Z,83.04
2017-05-05T03:27:16.902Z,82.94
2017-05-05T03:27:57.389Z,82.94
2017-05-05T03:29:50.491Z,83.8
2017-05-05T03:30:31.053Z,83.04
2017-05-05T03:31:11.573Z,83.8
2017-05-05T03:31:52.149Z,83.61
2017-05-05T03:32:32.592Z,83.8
2017-05-05T03:33:13.100Z,82.75
2017-05-05T03:33:53.634Z,83.13
2017-05-05T03:34:34.150Z,83.33
2017-05-05T03:35:14.665Z,83.8
2017-05-05T03:35:55.163Z,83.8
2017-05-05T03:36:35.679Z,83.7
2017-05-05T03:37:16.248Z,83.7
2017-05-05T03:37:56.776Z,84.38
2017-05-05T03:38:37.309Z,84.85
2017-05-05T03:39:17.785Z,83.99
2017-05-05T03:39:58.294Z,83.9
2017-05-05T03:40:38.768Z,83.51
2017-05-05T03:41:19.272Z,83.8
2017-05-05T03:41:59.768Z,83.8
2017-05-05T03:42:40.276Z,83.9
2017-05-05T03:43:20.740Z,83.61
2017-05-05T03:44:01.276Z,83.61
2017-05-05T03:44:41.836Z,83.8
2017-05-05T03:45:22.284Z,83.51
2017-05-05T03:46:02.790Z,83.23
2017-05-05T03:46:43.300Z,83.23
2017-05-05T03:47:23.777Z,83.42
2017-05-05T03:48:04.321Z,83.42
2017-05-05T03:48:44.780Z,83.04
2017-05-05T03:49:25.262Z,82.94
2017-05-05T03:50:05.760Z,82.75
2017-05-05T03:50:46.296Z,82.84
2017-05-05T03:51:26.779Z,83.23
2017-05-05T03:52:07.302Z,83.33
2017-05-05T03:52:47.811Z,83.13
2017-05-05T03:53:28.311Z,82.84
2017-05-05T03:54:08.826Z,82.94
2017-05-05T03:54:49.325Z,83.04
2017-05-05T03:55:29.832Z,83.13
2017-05-05T03:56:10.297Z,83.23
2017-05-05T03:56:50.812Z,83.04
2017-05-05T03:57:31.336Z,82.18
2017-05-05T03:58:11.854Z,82.75
2017-05-05T03:58:52.396Z,82.56
2017-05-05T03:59:32.917Z,82.41
2017-05-05T04:00:13.440Z,83.04
2017-05-05T04:00:53.956Z,83.04
2017-05-05T04:01:34.495Z,83.04
2017-05-05T04:02:15.015Z,82.84
2017-05-05T04:02:55.535Z,82.94
2017-05-05T04:03:36.022Z,83.17
2017-05-05T04:04:16.551Z,82.98
2017-05-05T04:04:57.073Z,83.56
2017-05-05T04:05:37.516Z,82.94
2017-05-05T04:06:18.045Z,83.56
2017-05-05T04:06:58.562Z,82.56
2017-05-05T04:07:39.092Z,82.28
2017-05-05T04:08:19.573Z,82.6
2017-05-05T04:09:00.097Z,82.51
2017-05-05T04:09:40.619Z,82.41
2017-05-05T04:10:21.105Z,82.31
2017-05-05T04:11:01.599Z,82.08
2017-05-05T04:11:42.123Z,83.33
2017-05-05T04:12:22.642Z,82.94
2017-05-05T04:13:03.176Z,83.42
2017-05-05T04:13:43.693Z,83.61
2017-05-05T04:14:24.216Z,83.42
2017-05-05T04:15:04.732Z,83.42
2017-05-05T04:15:45.247Z,83.42
2017-05-05T04:16:25.760Z,82.84
2017-05-05T04:17:06.270Z,83.04
2017-05-05T04:17:46.794Z,83.23
2017-05-05T04:18:27.544Z,83.13
2017-05-05T04:19:08.061Z,83.04
2017-05-05T04:19:48.601Z,83.51
2017-05-05T04:20:29.119Z,82.37
2017-05-05T04:21:09.646Z,82.46
2017-05-05T04:21:50.160Z,82.22
2017-05-05T04:22:30.681Z,82.08
2017-05-05T04:23:11.199Z,82.46
2017-05-05T04:23:51.713Z,82.37
2017-05-05T04:24:32.233Z,81.99
2017-05-05T04:25:12.849Z,81.99
2017-05-05T04:25:53.374Z,82.18
2017-05-05T04:26:33.901Z,82.28
2017-05-05T04:27:14.409Z,82.28
2017-05-05T04:27:54.930Z,82.08
2017-05-05T04:28:35.454Z,81.89
2017-05-05T04:29:15.969Z,82.18
2017-05-05T04:29:56.484Z,82.28
2017-05-05T04:30:37.008Z,82.37
2017-05-05T04:31:17.527Z,82.46
2017-05-05T04:31:58.046Z,82.56
2017-05-05T04:32:38.573Z,82.28
2017-05-05T04:33:19.095Z,82.37
2017-05-05T04:33:59.605Z,82.46
2017-05-05T04:34:40.130Z,82.18
2017-05-05T04:35:20.658Z,82.37
2017-05-05T04:36:01.170Z,82.18
2017-05-05T04:36:41.692Z,82.28
2017-05-05T04:37:22.211Z,82.28
2017-05-05T04:38:02.755Z,82.65
2017-05-05T04:38:43.278Z,81.89
2017-05-05T04:39:23.817Z,82.08
2017-05-05T04:40:04.318Z,82.75
2017-05-05T04:40:44.855Z,81.99
2017-05-05T04:41:25.366Z,82.18
2017-05-05T04:42:05.891Z,81.99
2017-05-05T04:42:46.419Z,82.65
2017-05-05T04:43:26.926Z,82.56
2017-05-05T04:44:07.455Z,82.42
2017-05-05T04:44:47.987Z,83.09
2017-05-05T04:45:28.496Z,82.81
2017-05-05T04:46:09.019Z,82.9
2017-05-05T04:46:49.559Z,82.61
2017-05-05T04:47:30.078Z,83.04
2017-05-05T04:48:10.607Z,82.18
2017-05-05T04:48:51.148Z,82.32
2017-05-05T04:49:31.648Z,82.32
2017-05-05T04:50:12.174Z,82.28
2017-05-05T04:50:52.700Z,82.65
2017-05-05T04:51:33.216Z,82.52
2017-05-05T04:52:13.738Z,82.46
2017-05-05T04:52:54.269Z,82.37
2017-05-05T04:53:34.797Z,81.79
2017-05-05T04:54:15.323Z,81.99
2017-05-05T04:54:55.857Z,81.99
2017-05-05T04:55:36.379Z,82.37
2017-05-05T04:56:16.894Z,81.79
2017-05-05T04:56:57.433Z,82.37
2017-05-05T04:57:37.944Z,81.99
2017-05-05T04:58:18.455Z,81.89
2017-05-05T04:58:58.975Z,82.18
2017-05-05T04:59:39.489Z,81.79
2017-05-05T05:00:20.016Z,82.18
2017-05-05T05:01:00.542Z,82.46
2017-05-05T05:01:41.069Z,81.51
2017-05-05T05:02:21.601Z,81.7
2017-05-05T05:03:02.130Z,81.99
2017-05-05T05:03:42.654Z,81.13
2017-05-05T05:04:23.286Z,81.13
2017-05-05T05:05:03.771Z,81.13
2017-05-05T05:05:44.294Z,81.36
2017-05-05T05:06:24.824Z,81.55
2017-05-05T05:07:05.335Z,81.36
2017-05-05T05:07:45.874Z,81.55
2017-05-05T05:08:26.391Z,80.79
2017-05-05T05:09:06.906Z,80.88
2017-05-05T05:09:47.426Z,80.69
2017-05-05T05:10:27.949Z,80.79
2017-05-05T05:11:08.480Z,80.4
2017-05-05T05:11:48.997Z,81.51
2017-05-05T05:12:29.517Z,81.45
2017-05-05T05:13:10.036Z,80.79
2017-05-05T05:13:50.553Z,80.88
2017-05-05T05:14:31.078Z,80.98
2017-05-05T05:15:11.608Z,80.59
2017-05-05T05:15:52.125Z,80.4
2017-05-05T05:16:32.655Z,80.11
2017-05-05T05:17:13.169Z,79.73
2017-05-05T05:17:53.723Z,80.79
2017-05-05T05:18:34.237Z,80.4
2017-05-05T05:19:14.758Z,80.59
2017-05-05T05:19:55.278Z,80.59
2017-05-05T05:20:35.810Z,80.21
2017-05-05T05:21:16.332Z,81.36
2017-05-05T05:21:56.854Z,81.36
2017-05-05T05:22:37.394Z,82.22
2017-05-05T05:23:17.916Z,81.93
2017-05-05T05:23:58.422Z,81.26
2017-05-05T05:24:38.956Z,80.79
2017-05-05T05:25:19.481Z,82.12
2017-05-05T05:26:00.005Z,81.93
2017-05-05T05:26:40.543Z,81.36
2017-05-05T05:27:21.058Z,80.59
2017-05-05T05:28:01.588Z,80.98
2017-05-05T05:28:42.104Z,80.79
2017-05-05T05:29:22.626Z,81.55
2017-05-05T05:30:03.154Z,81.45
2017-05-05T05:30:43.699Z,80.79
2017-05-05T05:31:24.186Z,80.88
2017-05-05T05:32:04.708Z,88.15
2017-05-05T05:32:45.231Z,87
2017-05-05T05:33:25.757Z,88.15
2017-05-05T05:34:06.271Z,96.7
2017-05-05T05:34:46.796Z,99.99
2017-05-05T05:35:27.339Z,97.28
2017-05-05T05:36:07.864Z,93.84
2017-05-05T05:36:48.403Z,87.14
2017-05-05T05:37:28.899Z,85.09
2017-05-05T05:38:09.422Z,85.22
2017-05-05T05:38:50.172Z,85.13
2017-05-05T05:39:30.677Z,82.83
2017-05-05T05:40:11.193Z,86.76
2017-05-05T05:40:51.701Z,89.72
2017-05-05T05:41:32.210Z,88.09
2017-05-05T05:42:12.723Z,90.01
2017-05-05T05:42:53.247Z,86.66
2017-05-05T05:43:33.783Z,84.08
2017-05-05T05:44:14.320Z,82.17
2017-05-05T05:44:54.857Z,81.21
2017-05-05T05:45:35.386Z,80.92
2017-05-05T05:46:15.903Z,80.54
2017-05-05T05:46:56.440Z,80.82
2017-05-05T05:47:37.342Z,80.06
2017-05-05T05:48:17.897Z,80.16
2017-05-05T05:48:58.417Z,79.68
2017-05-05T05:49:39.771Z,79.68
2017-05-05T05:50:20.010Z,79.58
2017-05-05T05:51:00.533Z,79.2
2017-05-05T05:51:41.058Z,79.29
2017-05-05T05:52:21.582Z,79.39
2017-05-05T05:53:02.119Z,79.49
2017-05-05T05:53:43.369Z,79.2
2017-05-05T05:54:23.835Z,78.53
2017-05-05T05:55:04.379Z,79.39
2017-05-05T05:55:44.936Z,79.68
2017-05-05T05:56:25.451Z,79.39
2017-05-05T05:57:05.971Z,79.64
2017-05-05T05:57:46.468Z,79.54
2017-05-05T05:58:27.004Z,80.02
2017-05-05T05:59:07.822Z,80.25
2017-05-05T05:59:48.394Z,79.68
2017-05-05T06:00:28.894Z,79.35
2017-05-05T06:01:09.413Z,79.25
2017-05-05T06:01:49.939Z,79.06
2017-05-05T06:02:30.465Z,79.16
2017-05-05T06:03:10.987Z,79.44
2017-05-05T06:03:51.517Z,79.16
2017-05-05T06:04:32.117Z,79.16
2017-05-05T06:05:12.622Z,79.2
2017-05-05T06:05:53.139Z,79.68
2017-05-05T06:07:51.319Z,79.1
2017-05-05T06:08:31.835Z,79.39
2017-05-05T06:09:12.365Z,79.39
2017-05-05T06:09:52.880Z,79.87
2017-05-05T06:10:33.392Z,79.2
2017-05-05T06:11:13.918Z,81.97
2017-05-05T06:11:54.462Z,81.11
2017-05-05T06:12:34.947Z,80.16
2017-05-05T06:13:15.467Z,82.26
2017-05-05T06:13:55.980Z,81.78
2017-05-05T06:14:36.512Z,81.4
2017-05-05T06:15:17.047Z,83.5
2017-05-05T06:15:57.572Z,81.68
2017-05-05T06:16:38.092Z,82.07
2017-05-05T06:17:18.612Z,85.84
2017-05-05T06:17:59.141Z,86.8
2017-05-05T06:18:39.656Z,86.9
2017-05-05T06:19:20.174Z,82.64
2017-05-05T06:20:00.713Z,86.76
2017-05-05T06:20:41.243Z,84.17
2017-05-05T06:21:21.766Z,81.3
2017-05-05T06:22:02.289Z,80.16
2017-05-05T06:22:42.813Z,79.58
2017-05-05T06:23:23.322Z,79.39
2017-05-05T06:24:03.840Z,79.29
2017-05-05T06:24:44.373Z,79
2017-05-05T06:25:24.894Z,80.54
2017-05-05T06:26:05.405Z,82.26
2017-05-05T06:26:45.921Z,89.58
2017-05-05T06:27:26.433Z,96.75
2017-05-05T06:28:06.950Z,95.36
2017-05-05T06:28:47.497Z,99.99
2017-05-05T06:29:28.009Z,98.05
2017-05-05T06:30:08.520Z,89.23
2017-05-05T06:30:49.037Z,85.31
2017-05-05T06:31:29.559Z,84.16
2017-05-05T06:32:10.082Z,93.26
2017-05-05T06:32:50.602Z,97.71
2017-05-05T06:33:31.112Z,95.51
2017-05-05T06:34:11.635Z,94.4
2017-05-05T06:34:52.153Z,91.25
2017-05-05T06:35:32.686Z,89.14
2017-05-05T06:36:13.213Z,86.12
2017-05-05T06:36:53.732Z,84.68
2017-05-05T06:37:34.244Z,85.54
2017-05-05T06:38:14.762Z,88.32
2017-05-05T06:38:55.293Z,95.31
2017-05-05T06:39:35.818Z,92.06
2017-05-05T06:40:16.344Z,84.45
2017-05-05T06:40:56.865Z,89.9
2017-05-05T06:41:37.377Z,90.77
2017-05-05T06:42:17.896Z,86.84
2017-05-05T06:42:58.417Z,83.87
2017-05-05T06:43:38.953Z,82.53
2017-05-05T06:44:19.480Z,82.43
2017-05-05T06:45:00.008Z,82.24
2017-05-05T06:45:40.579Z,81.48
2017-05-05T06:46:21.093Z,83.2
2017-05-05T06:47:01.617Z,83.2
2017-05-05T06:47:42.126Z,80.24
2017-05-05T06:48:22.648Z,78.8
2017-05-05T06:49:03.174Z,78.32
2017-05-05T06:49:43.694Z,78.22
2017-05-05T06:50:24.213Z,77.17
2017-05-05T06:51:04.725Z,76.82
2017-05-05T06:51:45.255Z,76.44
2017-05-05T06:52:25.789Z,76.12
2017-05-05T06:53:06.335Z,76.25
2017-05-05T06:53:46.848Z,76.06
2017-05-05T06:54:27.372Z,76.12
2017-05-05T06:55:07.916Z,75.83
2017-05-05T06:55:48.428Z,76.79
2017-05-05T06:56:28.952Z,76.4
2017-05-05T06:57:09.478Z,75.93
2017-05-05T06:57:49.998Z,76.5
2017-05-05T06:58:30.509Z,76.79
2017-05-05T06:59:11.035Z,77.17
2017-05-05T06:59:51.546Z,76.4
2017-05-05T07:00:32.079Z,76.21
2017-05-05T07:01:12.633Z,76.21
2017-05-05T07:01:53.180Z,75.73
2017-05-05T07:02:33.708Z,74.77
2017-05-05T07:03:14.225Z,75.64
2017-05-05T07:03:54.744Z,76.21
2017-05-05T07:04:35.261Z,75.83
2017-05-05T07:05:15.771Z,81.9
2017-05-05T07:05:56.296Z,79.8
2017-05-05T07:06:36.834Z,78.64
2017-05-05T07:07:17.353Z,76.64
2017-05-05T07:07:57.879Z,84.97
2017-05-05T07:08:38.402Z,86.07
2017-05-05T07:09:18.929Z,81.18
2017-05-05T07:09:59.450Z,79.36
2017-05-05T07:10:39.970Z,79.07
2017-05-05T07:11:20.490Z,76.71
2017-05-05T07:12:01.002Z,83.52
2017-05-05T07:12:41.525Z,78.34
2017-05-05T07:13:22.040Z,74.02
2017-05-05T07:14:02.545Z,74.31
2017-05-05T07:14:43.061Z,78.15
2017-05-05T07:15:23.625Z,79.44
2017-05-05T07:16:04.149Z,82.51
2017-05-05T07:16:44.678Z,78.28
2017-05-05T07:17:25.196Z,84.91
2017-05-05T07:18:05.730Z,84.91
2017-05-05T07:18:46.265Z,84.52
2017-05-05T07:19:26.792Z,85.67
2017-05-05T07:20:07.317Z,83.65
2017-05-05T07:20:47.837Z,78.77
2017-05-05T07:21:28.367Z,80.15
2017-05-05T07:22:08.965Z,88.59
2017-05-05T07:22:49.460Z,88.59
2017-05-05T07:23:29.998Z,90.03
2017-05-05T07:24:10.527Z,87.78
2017-05-05T07:24:51.065Z,82.16
2017-05-05T07:25:31.571Z,77.9
2017-05-05T07:26:12.106Z,73.87
2017-05-05T07:26:52.630Z,75.5
2017-05-05T07:27:33.138Z,81.64
2017-05-05T07:28:13.657Z,87.21
2017-05-05T07:28:54.173Z,85.28
2017-05-05T07:29:34.697Z,82.79
2017-05-05T07:30:15.219Z,81.93
2017-05-05T07:30:55.746Z,81.64
2017-05-05T07:31:36.304Z,85.19
2017-05-05T07:32:16.829Z,82.98
2017-05-05T07:32:57.363Z,82.21
2017-05-05T07:33:37.884Z,75.98
2017-05-05T07:34:18.415Z,75.4
2017-05-05T07:34:58.925Z,76.56
2017-05-05T07:35:39.447Z,79.14
2017-05-05T07:36:19.971Z,77.61
2017-05-05T07:37:00.494Z,74.64
2017-05-05T07:37:41.029Z,74.19
2017-05-05T07:38:21.556Z,73.14
2017-05-05T07:39:02.067Z,73.04
2017-05-05T07:39:42.619Z,73.14
2017-05-05T07:40:23.146Z,72.37
2017-05-05T07:41:03.660Z,71.8
2017-05-05T07:41:44.514Z,71.22
2017-05-05T07:42:25.096Z,71.61
2017-05-05T07:43:05.601Z,70.84
2017-05-05T07:43:46.132Z,73.46
2017-05-05T07:44:26.737Z,73.85
2017-05-05T07:45:07.262Z,72.02
2017-05-05T07:45:47.777Z,73.27
2017-05-05T07:46:28.291Z,73.08
2017-05-05T07:47:08.809Z,75.67
2017-05-05T07:47:49.326Z,73.14
2017-05-05T07:48:29.856Z,71.16
2017-05-05T07:49:10.368Z,73.08
2017-05-05T07:49:50.889Z,72.85
2017-05-05T07:50:31.403Z,71.83
2017-05-05T07:51:11.929Z,69.53
2017-05-05T07:51:52.461Z,68.08
2017-05-05T07:52:32.990Z,68.02
2017-05-05T07:53:13.512Z,68.12
2017-05-05T07:53:54.035Z,66.58
2017-05-05T07:54:34.562Z,65.05
2017-05-05T07:55:15.096Z,65.14
2017-05-05T07:55:55.624Z,66
2017-05-05T07:56:36.136Z,65.43
2017-05-05T07:57:16.661Z,66.68
2017-05-05T07:57:57.216Z,65.43
2017-05-05T07:58:37.748Z,66.1
2017-05-05T07:59:18.266Z,65.72
2017-05-05T07:59:58.827Z,66.3
2017-05-05T08:00:39.344Z,67.45
2017-05-05T08:01:19.865Z,67.64
2017-05-05T08:02:00.386Z,66.77
2017-05-05T08:02:40.891Z,72.44
2017-05-05T08:03:21.409Z,74.46
2017-05-05T08:04:01.941Z,74.08
2017-05-05T08:04:42.457Z,73.21
2017-05-05T08:05:22.977Z,72.92
2017-05-05T08:06:03.501Z,71
2017-05-05T08:06:44.095Z,77.44
2017-05-05T08:07:24.627Z,78.98
2017-05-05T08:08:05.139Z,73.88
2017-05-05T08:08:45.664Z,69.46
2017-05-05T08:09:26.182Z,68.51
2017-05-05T08:10:06.710Z,77.44
2017-05-05T08:10:47.217Z,73.88
2017-05-05T08:11:27.743Z,70.33
2017-05-05T08:12:08.285Z,76.09
2017-05-05T08:12:48.807Z,81.57
2017-05-05T08:13:29.324Z,75.29
2017-05-05T08:14:09.842Z,72.79
2017-05-05T08:14:50.356Z,75.2
2017-05-05T08:15:30.876Z,80.19
2017-05-05T08:16:11.405Z,73.18
2017-05-05T08:16:51.926Z,72.5
2017-05-05T08:17:32.456Z,74.13
2017-05-05T08:18:12.964Z,75.77
2017-05-05T08:18:53.493Z,71.83
2017-05-05T08:19:34.006Z,67.99
2017-05-05T08:20:14.523Z,67.7
2017-05-05T08:20:55.046Z,66.74
2017-05-05T08:21:35.562Z,66.55
2017-05-05T08:22:16.090Z,65.2
2017-05-05T08:22:56.613Z,66.16
2017-05-05T08:23:37.149Z,67.8
2017-05-05T08:24:17.673Z,68.47
2017-05-05T08:24:58.196Z,67.83
2017-05-05T08:25:38.730Z,78.21
2017-05-05T08:26:19.247Z,80.13
2017-05-05T08:26:59.778Z,75.32
2017-05-05T08:27:40.314Z,76.48
2017-05-05T08:28:20.830Z,79.46
2017-05-05T08:29:01.356Z,82.43
2017-05-05T08:29:41.887Z,77.34
2017-05-05T08:30:22.423Z,76.29
2017-05-05T08:31:02.963Z,71.58
2017-05-05T08:31:43.495Z,74.11
2017-05-05T08:32:24.011Z,78.06
2017-05-05T08:33:04.535Z,81.23
2017-05-05T08:33:45.051Z,76.61
2017-05-05T08:34:25.558Z,75.17
2017-05-05T08:35:06.078Z,77.29
2017-05-05T08:35:46.596Z,72.77
2017-05-05T08:36:27.114Z,78.25
2017-05-05T08:37:07.617Z,77.76
2017-05-05T08:37:48.137Z,74.69
2017-05-05T08:38:28.670Z,68.83
2017-05-05T08:39:09.187Z,62.55
2017-05-05T08:39:49.696Z,61.55
2017-05-05T08:40:30.217Z,63.12
2017-05-05T08:41:10.788Z,67.83
2017-05-05T08:41:51.322Z,73.11
2017-05-05T08:42:31.821Z,78.88
2017-05-05T08:43:12.348Z,76.61
2017-05-05T08:43:52.881Z,78.3
2017-05-05T08:44:33.398Z,78.15
2017-05-05T08:45:13.925Z,79.02
2017-05-05T08:45:54.441Z,73.06
2017-05-05T08:46:34.960Z,80.22